createdAt,value
2023-05-04T00:02:12.839Z,102106.38
2023-05-04T00:04:42.735Z,102097.44
2023-05-04T00:07:10.914Z,102099.16
2023-05-04T00:09:38.908Z,102099.16
2023-05-04T00:12:08.578Z,102096.50
2023-05-04T00:14:37.071Z,102096.47
2023-05-04T00:17:06.640Z,102099.13
2023-05-04T00:19:34.752Z,102086.63
2023-05-04T00:22:03.170Z,102089.28
2023-05-04T00:24:31.048Z,102097.25
2023-05-04T00:26:58.988Z,102089.16
2023-05-04T00:29:28.234Z,102088.25
2023-05-04T00:31:56.204Z,102083.78
2023-05-04T00:34:24.532Z,102078.41
2023-05-04T00:36:52.461Z,102072.13
2023-05-04T00:39:20.510Z,102077.38
2023-05-04T00:41:48.488Z,102069.34
2023-05-04T00:44:16.421Z,102070.19
2023-05-04T00:46:45.912Z,102062.16
2023-05-04T00:49:13.801Z,102065.66
2023-05-04T00:51:42.074Z,102062.13
2023-05-04T00:54:09.850Z,102061.16
2023-05-04T00:56:42.158Z,102057.63
2023-05-04T00:59:10.227Z,102058.50
2023-05-04T01:01:38.289Z,102053.09
2023-05-04T01:04:08.357Z,102051.25
2023-05-04T01:06:45.275Z,102047.69
2023-05-04T01:09:20.653Z,102041.41
2023-05-04T01:11:56.316Z,102039.63
2023-05-04T01:14:24.710Z,102042.28
2023-05-04T01:16:56.424Z,102032.38
2023-05-04T01:19:27.657Z,102028.69
2023-05-04T01:21:57.616Z,102027.75
2023-05-04T01:24:25.930Z,102022.41
2023-05-04T01:27:02.400Z,102024.19
2023-05-04T01:29:38.520Z,102034.84
2023-05-04T01:32:07.956Z,102025.97
2023-05-04T01:34:36.665Z,102033.97
2023-05-04T01:37:06.462Z,102023.28
2023-05-04T01:39:34.682Z,102021.50
2023-05-04T01:42:02.558Z,102027.69
2023-05-04T01:44:30.551Z,102024.09
2023-05-04T01:46:58.469Z,102028.50
2023-05-04T01:49:26.257Z,102029.34
2023-05-04T01:51:54.161Z,102017.75
2023-05-04T01:54:23.322Z,102026.63
2023-05-04T01:56:51.598Z,102022.16
2023-05-04T01:59:19.416Z,102022.09
2023-05-04T02:01:47.359Z,102017.59
2023-05-04T02:04:15.256Z,102030.91
2023-05-04T02:06:42.984Z,102025.56
2023-05-04T02:09:10.778Z,102029.09
2023-05-04T02:11:39.964Z,102023.75
2023-05-04T02:14:07.720Z,102033.53
2023-05-04T02:16:35.815Z,102021.03
2023-05-04T02:19:03.752Z,102026.28
2023-05-04T02:21:31.513Z,102023.63
2023-05-04T02:23:59.338Z,102024.44
2023-05-04T02:26:27.259Z,102022.66
2023-05-04T02:28:56.616Z,102022.66
2023-05-04T02:31:25.084Z,102019.97
2023-05-04T02:33:53.839Z,102020.78
2023-05-04T02:36:21.760Z,102015.38
2023-05-04T02:38:49.944Z,102018.00
2023-05-04T02:41:17.788Z,102016.19
2023-05-04T02:43:45.552Z,102020.59
2023-05-04T02:46:15.949Z,102011.66
2023-05-04T02:48:43.822Z,102013.44
2023-05-04T02:51:11.572Z,102011.63
2023-05-04T02:53:39.440Z,102000.94
2023-05-04T02:56:07.469Z,102004.44
2023-05-04T02:58:35.504Z,102004.44
2023-05-04T03:01:03.382Z,101994.56
2023-05-04T03:03:32.560Z,101993.69
2023-05-04T03:06:00.454Z,101999.03
2023-05-04T03:08:29.596Z,101992.75
2023-05-04T03:10:57.408Z,101993.66
2023-05-04T03:13:25.335Z,102000.75
2023-05-04T03:15:53.412Z,101996.34
2023-05-04T03:18:23.390Z,101990.03
2023-05-04T03:20:55.093Z,101993.56
2023-05-04T03:23:23.278Z,101989.13
2023-05-04T03:25:51.194Z,101992.59
2023-05-04T03:28:19.164Z,101990.78
2023-05-04T03:30:47.092Z,101993.41
2023-05-04T03:33:15.119Z,101991.59
2023-05-04T03:35:43.286Z,101984.50
2023-05-04T03:38:14.636Z,101983.59
2023-05-04T03:40:42.651Z,101990.72
2023-05-04T03:43:10.704Z,101990.66
2023-05-04T03:45:38.698Z,101988.81
2023-05-04T03:48:06.733Z,101987.84
2023-05-04T03:50:34.736Z,101988.69
2023-05-04T03:53:02.707Z,101986.97
2023-05-04T03:55:32.084Z,101990.53
2023-05-04T03:58:00.077Z,101980.78
2023-05-04T04:00:28.008Z,101982.56
2023-05-04T04:02:56.358Z,101980.81
2023-05-04T04:05:24.353Z,101977.19
2023-05-04T04:07:54.318Z,101984.31
2023-05-04T04:10:22.570Z,101983.44
2023-05-04T04:12:52.001Z,101981.63
2023-05-04T04:15:20.148Z,101986.09
2023-05-04T04:17:48.176Z,101978.16
2023-05-04T04:20:16.396Z,101975.50
2023-05-04T04:22:44.332Z,101977.28
2023-05-04T04:25:12.416Z,101980.78
2023-05-04T04:27:40.717Z,101982.53
2023-05-04T04:30:12.218Z,101980.78
2023-05-04T04:32:42.141Z,101976.34
2023-05-04T04:35:10.756Z,101976.38
2023-05-04T04:37:38.799Z,101980.91
2023-05-04T04:40:08.168Z,101980.03
2023-05-04T04:42:36.271Z,101982.72
2023-05-04T04:45:05.629Z,101981.88
2023-05-04T04:47:35.047Z,101971.19
2023-05-04T04:50:03.672Z,101974.72
2023-05-04T04:52:33.213Z,101974.75
2023-05-04T04:55:01.265Z,101969.44
2023-05-04T04:57:31.167Z,101962.31
2023-05-04T05:00:00.914Z,101965.94
2023-05-04T05:02:29.266Z,101970.34
2023-05-04T05:04:58.814Z,101968.63
2023-05-04T05:07:27.219Z,101962.47
2023-05-04T05:09:55.234Z,101967.06
2023-05-04T05:12:23.290Z,101973.44
2023-05-04T05:14:51.854Z,101966.47
2023-05-04T05:17:21.161Z,101967.50
2023-05-04T05:19:50.044Z,101965.06
2023-05-04T05:22:19.434Z,101971.53
2023-05-04T05:24:47.543Z,101960.16
2023-05-04T05:27:17.913Z,101963.00
2023-05-04T05:29:46.442Z,101958.66
2023-05-04T05:32:14.870Z,101951.66
2023-05-04T05:34:45.403Z,101951.72
2023-05-04T05:37:13.785Z,101950.06
2023-05-04T05:39:43.514Z,101943.00
2023-05-04T05:42:12.013Z,101960.06
2023-05-04T05:44:40.384Z,101953.00
2023-05-04T05:47:08.657Z,101954.84
2023-05-04T05:49:37.691Z,101955.72
2023-05-04T05:52:06.610Z,101948.66
2023-05-04T05:54:35.930Z,101946.00
2023-05-04T05:57:05.492Z,101938.91
2023-05-04T05:59:34.200Z,101936.25
2023-05-04T06:02:02.744Z,101930.97
2023-05-04T06:04:31.439Z,101939.94
2023-05-04T06:06:59.556Z,101943.56
2023-05-04T06:15:22.600Z,101941.00
2023-05-04T06:18:00.313Z,101936.59
2023-05-04T06:20:41.111Z,101930.34
2023-05-04T06:23:22.918Z,101932.16
2023-05-04T06:33:23.184Z,101932.19
2023-05-04T06:33:33.813Z,101934.84
2023-05-04T06:36:01.979Z,101936.69
2023-05-04T06:38:29.960Z,101926.84
2023-05-04T06:40:57.861Z,101925.06
2023-05-04T06:43:25.798Z,101919.72
2023-05-04T06:45:53.575Z,101925.09
2023-05-04T06:48:22.553Z,101924.19
2023-05-04T06:50:52.006Z,101924.19
2023-05-04T06:53:21.683Z,101926.00
2023-05-04T06:55:49.516Z,101930.44
2023-05-04T06:58:18.957Z,101914.34
2023-05-04T07:00:47.082Z,101923.28
2023-05-04T07:03:15.134Z,101914.31
2023-05-04T07:05:44.932Z,101917.84
2023-05-04T07:08:14.164Z,101916.94
2023-05-04T07:10:42.005Z,101910.59
2023-05-04T07:13:10.503Z,101910.59
2023-05-04T07:15:38.474Z,101906.94
2023-05-04T07:18:06.358Z,101901.47
2023-05-04T07:20:34.251Z,101904.19
2023-05-04T07:23:02.045Z,101906.84
2023-05-04T07:25:31.466Z,101896.94
2023-05-04T07:27:59.481Z,101896.84
2023-05-04T07:30:27.238Z,101892.31
2023-05-04T07:32:55.230Z,101901.25
2023-05-04T07:35:23.397Z,101891.34
2023-05-04T07:37:51.660Z,101895.84
2023-05-04T07:40:20.336Z,101894.00
2023-05-04T07:42:49.461Z,101900.16
2023-05-04T07:45:17.696Z,101891.16
2023-05-04T07:47:45.652Z,101882.06
2023-05-04T07:50:14.303Z,101879.25
2023-05-04T07:52:42.627Z,101879.97
2023-05-04T07:55:10.964Z,101877.25
2023-05-04T07:57:38.778Z,101871.72
2023-05-04T08:00:10.992Z,101868.13
2023-05-04T08:02:38.984Z,101869.81
2023-05-04T08:05:07.839Z,101863.38
2023-05-04T08:07:35.685Z,101858.72
2023-05-04T08:10:03.799Z,101857.66
2023-05-04T08:12:32.015Z,101861.97
2023-05-04T08:15:00.244Z,101853.69
2023-05-04T08:17:29.813Z,101858.06
2023-05-04T08:19:57.799Z,101854.28
2023-05-04T08:22:25.627Z,101852.31
2023-05-04T08:24:53.426Z,101845.78
2023-05-04T08:27:21.222Z,101844.72
2023-05-04T08:29:49.011Z,101836.44
2023-05-04T08:32:17.517Z,101832.75
2023-05-04T08:34:46.834Z,101832.72
2023-05-04T08:37:14.676Z,101828.25
2023-05-04T08:39:45.597Z,101832.66
2023-05-04T08:42:13.472Z,101828.94
2023-05-04T08:44:42.736Z,101818.94
2023-05-04T08:47:13.201Z,101825.94
2023-05-04T08:49:40.996Z,101829.22
2023-05-04T08:52:11.697Z,101821.63
2023-05-04T08:54:42.838Z,101824.94
2023-05-04T08:57:10.977Z,101828.34
2023-05-04T08:59:39.253Z,101824.63
2023-05-04T09:02:08.513Z,101815.50
2023-05-04T09:04:37.773Z,101814.38
2023-05-04T09:07:06.345Z,101811.63
2023-05-04T09:09:35.767Z,101812.19
2023-05-04T09:12:03.558Z,101809.13
2023-05-04T09:14:36.285Z,101810.69
2023-05-04T09:17:04.768Z,101809.50
2023-05-04T09:19:34.788Z,101803.59
2023-05-04T09:22:03.122Z,101796.13
2023-05-04T09:24:31.703Z,101796.59
2023-05-04T09:27:11.479Z,101787.09
2023-05-04T09:29:40.516Z,101776.72
2023-05-04T09:32:12.646Z,101774.53
2023-05-04T09:34:48.754Z,101781.44
2023-05-04T09:37:16.693Z,101773.22
2023-05-04T09:39:55.229Z,101774.84
2023-05-04T09:42:25.181Z,101771.16
2023-05-04T09:45:03.726Z,101769.91
2023-05-04T09:47:35.879Z,101776.97
2023-05-04T09:50:20.263Z,101765.09
2023-05-04T09:52:49.426Z,101759.53
2023-05-04T09:55:18.544Z,101753.13
2023-05-04T09:57:49.325Z,101751.22
2023-05-04T10:00:18.665Z,101751.97
2023-05-04T10:02:47.552Z,101754.31
2023-05-04T10:05:17.546Z,101753.06
2023-05-04T10:07:46.459Z,101742.72
2023-05-04T10:10:16.659Z,101734.50
2023-05-04T10:12:46.999Z,101735.97
2023-05-04T10:15:17.035Z,101730.13
2023-05-04T10:18:08.655Z,101730.72
2023-05-04T10:21:01.063Z,101732.22
2023-05-04T10:23:47.357Z,101716.38
2023-05-04T10:26:40.556Z,101723.22
2023-05-04T10:29:23.450Z,101714.69
2023-05-04T10:31:52.820Z,101707.22
2023-05-04T10:34:27.696Z,101706.41
2023-05-04T10:36:56.065Z,101706.94
2023-05-04T10:39:25.944Z,101701.97
2023-05-04T10:42:02.986Z,101699.88
2023-05-04T10:44:33.147Z,101683.53
2023-05-04T10:47:03.422Z,101682.56
2023-05-04T10:49:31.382Z,101675.16
2023-05-04T10:52:20.285Z,101672.06
2023-05-04T10:54:59.350Z,101674.78
2023-05-04T10:57:29.162Z,101658.09
2023-05-04T11:00:01.663Z,101659.50
2023-05-04T11:02:32.443Z,101654.84
2023-05-04T11:05:04.827Z,101650.47
2023-05-04T11:07:38.379Z,101644.81
2023-05-04T11:10:08.514Z,101644.53
2023-05-04T11:12:40.436Z,101643.41
2023-05-04T11:15:11.464Z,101633.53
2023-05-04T11:17:47.508Z,101636.53
2023-05-04T11:20:22.994Z,101627.28
2023-05-04T11:22:52.016Z,101624.28
2023-05-04T11:25:27.975Z,101621.25
2023-05-04T11:27:56.300Z,101607.16
2023-05-04T11:30:36.924Z,101606.84
2023-05-04T11:33:11.946Z,101609.03
2023-05-04T11:35:40.562Z,101586.78
2023-05-04T11:38:08.850Z,101587.97
2023-05-04T11:40:41.108Z,101575.75
2023-05-04T11:43:12.766Z,101574.66
2023-05-04T11:45:48.532Z,101580.88
2023-05-04T11:48:18.787Z,101567.53
2023-05-04T11:50:49.411Z,101561.63
2023-05-04T11:53:21.767Z,101562.31
2023-05-04T11:55:49.843Z,101551.53
2023-05-04T11:58:25.874Z,101553.69
2023-05-04T12:00:59.230Z,101541.97
2023-05-04T12:03:35.934Z,101546.09
2023-05-04T12:06:12.699Z,101544.34
2023-05-04T12:08:43.757Z,101540.34
2023-05-04T12:11:17.086Z,101530.91
2023-05-04T12:13:48.652Z,101533.09
2023-05-04T12:16:21.605Z,101524.84
2023-05-04T12:18:50.113Z,101524.94
2023-05-04T12:21:20.805Z,101532.28
2023-05-04T12:23:49.226Z,101526.47
2023-05-04T12:26:19.734Z,101517.13
2023-05-04T12:28:48.576Z,101512.75
2023-05-04T12:31:18.394Z,101513.44
2023-05-04T12:33:46.913Z,101519.56
2023-05-04T12:36:15.472Z,101515.84
2023-05-04T12:38:43.621Z,101514.03
2023-05-04T12:41:12.090Z,101497.59
2023-05-04T12:43:40.372Z,101496.22
2023-05-04T12:46:08.666Z,101492.78
2023-05-04T12:48:39.112Z,101484.34
2023-05-04T12:51:07.712Z,101495.09
2023-05-04T12:53:36.902Z,101485.53
2023-05-04T12:56:05.631Z,101478.69
2023-05-04T12:58:35.379Z,101475.88
2023-05-04T13:01:04.854Z,101472.19
2023-05-04T13:03:33.239Z,101465.69
2023-05-04T13:06:04.644Z,101469.59
2023-05-04T13:08:33.827Z,101462.03
2023-05-04T13:11:02.355Z,101461.69
2023-05-04T13:13:30.894Z,101448.66
2023-05-04T13:15:59.435Z,101441.97
2023-05-04T13:18:28.767Z,101435.03
2023-05-04T13:20:57.707Z,101424.28
2023-05-04T13:23:29.583Z,101426.56
2023-05-04T13:25:58.156Z,101429.47
2023-05-04T13:28:32.107Z,101428.34
2023-05-04T13:31:04.986Z,101413.34
2023-05-04T13:33:45.420Z,101416.59
2023-05-04T13:36:13.732Z,101415.88
2023-05-04T13:38:44.020Z,101402.59
2023-05-04T13:41:12.431Z,101419.66
2023-05-04T13:43:41.070Z,101404.50
2023-05-04T13:46:09.640Z,101408.06
2023-05-04T13:48:38.616Z,101395.78
2023-05-04T13:51:10.030Z,101395.22
2023-05-04T13:53:38.790Z,101385.88
2023-05-04T13:56:09.378Z,101390.66
2023-05-04T13:58:38.242Z,101385.81
2023-05-04T14:01:07.026Z,101382.56
2023-05-04T14:03:36.727Z,101385.75
2023-05-04T14:06:06.968Z,101371.13
2023-05-04T14:08:37.841Z,101366.63
2023-05-04T14:11:06.290Z,101368.13
2023-05-04T14:13:36.632Z,101372.16
2023-05-04T14:16:05.031Z,101365.44
2023-05-04T14:18:33.831Z,101357.28
2023-05-04T14:21:02.138Z,101358.47
2023-05-04T14:23:30.201Z,101349.75
2023-05-04T14:25:58.379Z,101334.84
2023-05-04T14:28:27.368Z,101335.41
2023-05-04T14:30:58.602Z,101327.00
2023-05-04T14:33:27.138Z,101323.31
2023-05-04T14:35:55.233Z,101310.59
2023-05-04T14:38:23.443Z,101306.78
2023-05-04T14:40:53.057Z,101291.09
2023-05-04T14:43:21.219Z,101291.66
2023-05-04T14:45:51.148Z,101294.00
2023-05-04T14:48:24.403Z,101290.09
2023-05-04T14:50:52.808Z,101290.56
2023-05-04T14:53:21.885Z,101296.94
2023-05-04T14:55:50.104Z,101296.44
2023-05-04T14:58:18.903Z,101284.34
2023-05-04T15:00:47.654Z,101281.97
2023-05-04T15:03:15.871Z,101284.91
2023-05-04T15:05:45.687Z,101280.34
2023-05-04T15:08:13.705Z,101274.97
2023-05-04T15:10:43.920Z,101274.97
2023-05-04T15:13:15.784Z,101264.09
2023-05-04T15:15:44.012Z,101257.97
2023-05-04T15:18:13.699Z,101265.41
2023-05-04T15:20:42.037Z,101263.72
2023-05-04T15:23:11.691Z,101253.88
2023-05-04T15:25:41.129Z,101250.38
2023-05-04T15:28:11.128Z,101249.03
2023-05-04T15:30:39.896Z,101242.09
2023-05-04T15:33:09.255Z,101245.41
2023-05-04T15:35:39.470Z,101236.63
2023-05-04T15:38:08.084Z,101233.13
2023-05-04T15:40:52.419Z,101232.34
2023-05-04T15:44:15.498Z,101245.13
2023-05-04T15:46:58.021Z,101243.28
2023-05-04T15:49:25.881Z,101233.13
2023-05-04T15:51:54.964Z,101236.63
2023-05-04T15:54:22.810Z,101234.97
2023-05-04T15:56:52.383Z,101244.91
2023-05-04T15:59:21.634Z,101242.28
2023-05-04T16:01:49.684Z,101240.56
2023-05-04T16:04:18.012Z,101233.22
2023-05-04T16:06:46.181Z,101235.84
2023-05-04T16:09:17.140Z,101239.66
2023-05-04T16:11:49.038Z,101243.09
2023-05-04T16:14:18.344Z,101242.28
2023-05-04T16:16:46.737Z,101244.06
2023-05-04T16:19:14.816Z,101244.81
2023-05-04T16:21:42.750Z,101243.84
2023-05-04T16:24:12.952Z,101251.84
2023-05-04T16:26:41.185Z,101241.81
2023-05-04T16:29:09.224Z,101227.34
2023-05-04T16:31:38.613Z,101229.53
2023-05-04T16:34:06.711Z,101222.19
2023-05-04T16:36:35.433Z,101215.16
2023-05-04T16:39:04.874Z,101217.13
2023-05-04T16:41:32.824Z,101211.03
2023-05-04T16:44:01.805Z,101220.13
2023-05-04T16:46:34.603Z,101212.72
2023-05-04T16:49:04.514Z,101214.19
2023-05-04T16:51:32.418Z,101218.38
2023-05-04T16:54:00.275Z,101212.81
2023-05-04T16:56:28.193Z,101204.00
2023-05-04T16:58:56.075Z,101209.13
2023-05-04T17:01:23.990Z,101209.06
2023-05-04T17:03:51.915Z,101213.09
2023-05-04T17:06:21.951Z,101211.88
2023-05-04T17:08:49.921Z,101210.69
2023-05-04T17:11:17.736Z,101212.84
2023-05-04T17:13:47.558Z,101203.22
2023-05-04T17:16:15.559Z,101208.16
2023-05-04T17:18:43.625Z,101208.56
2023-05-04T17:21:11.694Z,101202.47
2023-05-04T17:23:41.176Z,101213.69
2023-05-04T17:26:10.453Z,101207.31
2023-05-04T17:28:38.614Z,101215.69
2023-05-04T17:31:06.789Z,101209.38
2023-05-04T17:33:34.631Z,101218.63
2023-05-04T17:36:03.941Z,101217.03
2023-05-04T17:38:32.600Z,101214.50
2023-05-04T17:41:02.289Z,101218.19
2023-05-04T17:43:30.051Z,101221.19
2023-05-04T17:45:57.886Z,101220.41
2023-05-04T17:48:26.736Z,101214.16
2023-05-04T17:50:56.362Z,101214.41
2023-05-04T17:53:24.216Z,101210.91
2023-05-04T17:55:55.252Z,101207.38
2023-05-04T17:58:24.735Z,101218.47
2023-05-04T18:00:53.153Z,101219.53
2023-05-04T18:03:21.656Z,101214.25
2023-05-04T18:05:51.251Z,101210.91
2023-05-04T18:08:19.556Z,101218.63
2023-05-04T18:10:48.597Z,101223.53
2023-05-04T18:13:17.004Z,101222.81
2023-05-04T18:15:47.749Z,101226.88
2023-05-04T18:18:16.022Z,101220.81
2023-05-04T18:20:43.843Z,101221.00
2023-05-04T18:23:11.786Z,101230.31
2023-05-04T18:25:39.656Z,101234.25
2023-05-04T18:28:07.701Z,101227.47
2023-05-04T18:30:35.632Z,101228.75
2023-05-04T18:33:05.063Z,101229.16
2023-05-04T18:35:32.888Z,101230.47
2023-05-04T18:38:00.699Z,101233.66
2023-05-04T18:40:28.504Z,101242.31
2023-05-04T18:42:58.137Z,101239.94
2023-05-04T18:45:26.472Z,101243.94
2023-05-04T18:47:54.917Z,101246.25
2023-05-04T18:50:24.583Z,101239.69
2023-05-04T18:52:54.326Z,101245.50
2023-05-04T18:55:22.487Z,101247.94
2023-05-04T18:57:51.641Z,101248.13
2023-05-04T19:00:20.087Z,101251.22
2023-05-04T19:02:48.322Z,101251.47
2023-05-04T19:05:16.806Z,101253.66
2023-05-04T19:07:46.617Z,101253.25
2023-05-04T19:10:16.516Z,101247.09
2023-05-04T19:12:44.625Z,101248.47
2023-05-04T19:15:13.212Z,101257.00
2023-05-04T19:17:41.481Z,101251.66
2023-05-04T19:20:10.489Z,101252.81
2023-05-04T19:22:38.609Z,101247.69
2023-05-04T19:25:11.050Z,101255.16
2023-05-04T19:27:41.178Z,101253.69
2023-05-04T19:30:10.198Z,101253.84
2023-05-04T19:32:38.905Z,101252.22
2023-05-04T19:35:18.927Z,101257.75
2023-05-04T19:37:52.562Z,101253.56
2023-05-04T19:40:23.075Z,101255.53
2023-05-04T19:42:51.529Z,101254.88
2023-05-04T19:45:20.207Z,101253.97
2023-05-04T19:47:50.436Z,101255.81
2023-05-04T19:50:18.723Z,101257.78
2023-05-04T19:52:53.435Z,101256.19
2023-05-04T19:55:27.690Z,101255.44
2023-05-04T19:57:56.790Z,101246.56
2023-05-04T20:00:25.993Z,101249.53
2023-05-04T20:02:54.602Z,101253.31
2023-05-04T20:05:25.155Z,101250.91
2023-05-04T20:07:54.498Z,101254.69
2023-05-04T20:10:26.009Z,101251.25
2023-05-04T20:12:55.938Z,101253.19
2023-05-04T20:15:27.864Z,101244.31
2023-05-04T20:17:56.718Z,101249.81
2023-05-04T20:20:25.521Z,101247.16
2023-05-04T20:22:56.378Z,101237.41
2023-05-04T20:25:30.498Z,101245.63
2023-05-04T20:28:01.036Z,101239.34
2023-05-04T20:30:30.972Z,101242.34
2023-05-04T20:33:04.686Z,101244.25
2023-05-04T20:35:33.074Z,101239.91
2023-05-04T20:38:01.477Z,101241.06
2023-05-04T20:40:37.130Z,101234.94
2023-05-04T20:43:06.009Z,101238.81
2023-05-04T20:45:34.729Z,101236.38
2023-05-04T20:48:04.542Z,101241.22
2023-05-04T20:50:33.822Z,101233.31
2023-05-04T20:53:08.460Z,101231.81
2023-05-04T20:55:41.044Z,101223.88
2023-05-04T20:58:09.546Z,101223.19
2023-05-04T21:00:46.865Z,101221.56
2023-05-04T21:03:17.527Z,101223.56
2023-05-04T21:05:46.905Z,101219.19
2023-05-04T21:08:15.883Z,101207.69
2023-05-04T21:10:46.457Z,101214.22
2023-05-04T21:13:17.297Z,101209.91
2023-05-04T21:15:51.849Z,101202.91
2023-05-04T21:18:27.113Z,101194.94
2023-05-04T21:20:55.827Z,101194.25
2023-05-04T21:23:25.034Z,101202.63
2023-05-04T21:26:01.231Z,101199.19
2023-05-04T21:28:29.682Z,101200.25
2023-05-04T21:30:58.401Z,101199.63
2023-05-04T21:33:58.108Z,101202.50
2023-05-04T21:36:49.587Z,101201.94
2023-05-04T21:39:37.878Z,101202.00
2023-05-04T21:42:31.158Z,101195.91
2023-05-04T21:44:59.328Z,101196.91
2023-05-04T21:47:28.534Z,101202.44
2023-05-04T21:49:56.790Z,101194.31
2023-05-04T21:52:25.066Z,101202.38
2023-05-04T21:54:53.459Z,101192.47
2023-05-04T21:57:23.531Z,101188.91
2023-05-04T21:59:51.677Z,101189.75
2023-05-04T22:02:19.966Z,101191.53
2023-05-04T22:04:48.254Z,101197.88
2023-05-04T22:07:19.675Z,101186.19
2023-05-04T22:09:48.831Z,101187.13
2023-05-04T22:12:17.358Z,101186.25
2023-05-04T22:14:46.788Z,101185.34
2023-05-04T22:17:14.664Z,101182.63
2023-05-04T22:19:42.925Z,101188.06
2023-05-04T22:22:10.775Z,101180.88
2023-05-04T22:24:38.577Z,101190.81
2023-05-04T22:27:06.535Z,101199.97
2023-05-04T22:29:36.098Z,101189.16
2023-05-04T22:32:05.854Z,101186.47
2023-05-04T22:34:33.704Z,101191.94
2023-05-04T22:37:03.148Z,101186.56
2023-05-04T22:39:31.137Z,101190.19
2023-05-04T22:41:59.073Z,101187.47
2023-05-04T22:44:27.053Z,101181.09
2023-05-04T22:46:54.847Z,101194.69
2023-05-04T22:49:25.972Z,101193.81
2023-05-04T22:51:53.905Z,101198.38
2023-05-04T22:54:22.134Z,101190.38
2023-05-04T22:56:49.935Z,101195.88
2023-05-04T22:59:17.997Z,101189.56
2023-05-04T23:01:46.624Z,101196.84
2023-05-04T23:04:14.886Z,101193.22
2023-05-04T23:06:44.325Z,101197.63
2023-05-04T23:09:12.800Z,101192.22
2023-05-04T23:11:40.670Z,101184.97
2023-05-04T23:14:08.852Z,101196.72
2023-05-04T23:16:37.534Z,101195.81
2023-05-04T23:19:05.924Z,101197.63
2023-05-04T23:21:34.012Z,101197.63
2023-05-04T23:24:03.862Z,101197.63
2023-05-04T23:26:31.677Z,101193.09
2023-05-04T23:28:59.692Z,101192.16
2023-05-04T23:31:28.698Z,101194.13
2023-05-04T23:33:56.594Z,101192.34
2023-05-04T23:36:24.436Z,101196.09
2023-05-04T23:38:52.450Z,101189.81
2023-05-04T23:41:21.977Z,101197.94
2023-05-04T23:43:49.809Z,101197.97
2023-05-04T23:46:17.673Z,101202.53
2023-05-04T23:48:46.390Z,101201.72
2023-05-04T23:51:14.334Z,101200.91
2023-05-04T23:53:42.444Z,101200.09
2023-05-04T23:56:10.384Z,101205.66
2023-05-04T23:58:40.102Z,101200.34
